Time;durP1;ratioP1;P1;durP2;ratioP2;P2;SDS_P1;SDS_P2;PMS_P1;PMS_P2;Temp;Humidity;BMP_temperature;BMP_pressure;BME280_temperature;BME280_humidity;BME280_pressure;Samples;Min_cycle;Max_cycle;Signal;HPM_P1;HPM_P2
2021/08/03 00:00:07;;;;;;;;;;;;;;;;;;2141960;59;1360;-88
2021/08/03 00:02:58;;;;;;;;;;;;;;;;;;2138788;67;1386;-90
2021/08/03 00:05:49;;;;;;;;;;;;;;;;;;2141858;59;1221;-90
2021/08/03 00:08:40;;;;;;;;;;;;;;;;;;2141811;67;1334;-87
2021/08/03 00:11:30;;;;;;;;;;;;;;;;;;2141555;59;1902;-91
2021/08/03 00:14:21;;;;;;;;;;;;;;;;;;2145655;67;1188;-90
2021/08/03 00:17:12;;;;;;;;;;;;;;;;;;2142735;59;1375;-91
2021/08/03 00:20:02;;;;;;;;;;;;;;;;;;2142882;67;1390;-92
2021/08/03 00:22:53;;;;;;;;;;;;;;;;;;2140695;59;1447;-89
2021/08/03 00:25:43;;;;;;;;;;;;;;;;;;2144596;67;1316;-91
2021/08/03 00:28:32;;;;;;;;;;;;;;;;;;2145236;67;1146;-90
2021/08/03 00:31:22;;;;;;;;;;;;;;;;;;2137425;59;1920;-90
2021/08/03 00:34:13;;;;;;;;;;;;;;;;;;2141344;59;871;-89
2021/08/03 00:37:02;;;;;;;;;;;;;;;;;;2146430;59;1068;-89
2021/08/03 00:39:52;;;;;;;;;;;;;;;;;;2143979;67;1123;-90
2021/08/03 00:42:43;;;;;;;;;;;;;;;;;;2141404;67;1409;-89
2021/08/03 00:45:34;;;;;;;;;;;;;;;;;;2141468;59;1322;-88
2021/08/03 00:48:23;;;;;;;;;;;;;;;;;;2141259;59;1025;-91
2021/08/03 00:51:14;;;;;;;;;;;;;;;;;;2141341;67;1909;-89
2021/08/03 00:54:04;;;;;;;;;;;;;;;;;;2145232;67;1395;-89
2021/08/03 00:56:54;;;;;;;;;;;;;;;;;;2140552;59;1328;-91
2021/08/03 00:59:44;;;;;;;;;;;;;;;;;;2141573;59;1128;-89
2021/08/03 01:02:34;;;;;;;;;;;;;;;;;;2144900;59;890;-88
2021/08/03 01:05:25;;;;;;;;;;;;;;;;;;2141089;67;1316;-90
2021/08/03 01:08:16;;;;;;;;;;;;;;;;;;2140494;59;1368;-91
2021/08/03 01:11:07;;;;;;;;;;;;;;;;;;2144137;59;1918;-87
2021/08/03 01:13:58;;;;;;;;;;;;;;;;;;2140652;60;1266;-91
2021/08/03 01:16:49;;;;;;;;;;;;;;;;;;2140925;59;1311;-86
2021/08/03 01:19:40;;;;;;;;;;;;;;;;;;2141784;67;1339;-90
2021/08/03 01:22:30;;;;;;;;;;;;;;;;;;2141272;59;1200;-89
2021/08/03 01:25:21;;;;;;;;;;;;;;;;;;2141138;67;1369;-90
2021/08/03 01:28:12;;;;;;;;;;;;;;;;;;2147748;59;1094;-88
2021/08/03 01:31:03;;;;;;;;;;;;;;;;;;2143485;67;1945;-90
2021/08/03 01:33:53;;;;;;;;;;;;;;;;;;2145172;59;1204;-89
2021/08/03 01:36:43;;;;;;;;;;;;;;;;;;2145504;59;1250;-91
2021/08/03 01:39:34;;;;;;;;;;;;;;;;;;2142561;59;1408;-90
2021/08/03 01:42:24;;;;;;;;;;;;;;;;;;2141703;59;963;-88
2021/08/03 01:45:14;;;;;;;;;;;;;;;;;;2140955;59;1297;-88
2021/08/03 01:48:06;;;;;;;;;;;;;;;;;;2141572;67;1465;-91
2021/08/03 01:50:56;;;;;;;;;;;;;;;;;;2141158;59;1904;-89
2021/08/03 01:53:46;;;;;;;;;;;;;;;;;;2141251;67;1341;-91
2021/08/03 01:56:36;;;;;;;;;;;;;;;;;;2141535;67;1303;-89
2021/08/03 01:59:26;;;;;;;;;;;;;;;;;;2140556;59;1299;-88
2021/08/03 02:02:16;;;;;;;;;;;;;;;;;;2143478;59;1094;-89
2021/08/03 02:05:06;;;;;;;;;;;;;;;;;;2144819;59;1304;-90
2021/08/03 02:07:57;;;;;;;;;;;;;;;;;;2138116;59;1344;-90
2021/08/03 02:10:48;;;;;;;;;;;;;;;;;;2138402;67;1933;-89
2021/08/03 02:13:38;;;;;;;;;;;;;;;;;;2141680;59;1378;-89
2021/08/03 02:16:29;;;;;;;;;;;;;;;;;;2140989;67;1393;-90
2021/08/03 02:19:20;;;;;;;;;;;;;;;;;;2137973;59;1293;-91
2021/08/03 02:22:11;;;;;;;;;;;;;;;;;;2141117;59;1061;-89
2021/08/03 02:25:02;;;;;;;;;;;;;;;;;;2141785;59;1380;-88
2021/08/03 02:27:57;;;;;;;;;;;;;;;;;;2149025;59;833;-91
2021/08/03 02:30:48;;;;;;;;;;;;;;;;;;2149498;59;1906;-87
2021/08/03 02:33:39;;;;;;;;;;;;;;;;;;2142892;67;1308;-87
2021/08/03 02:36:30;;;;;;;;;;;;;;;;;;2145732;60;1308;-89
2021/08/03 02:39:20;;;;;;;;;;;;;;;;;;2145829;67;1310;-90
2021/08/03 02:42:10;;;;;;;;;;;;;;;;;;2149278;59;1214;-88
2021/08/03 02:45:01;;;;;;;;;;;;;;;;;;2149634;67;1300;-90
2021/08/03 02:47:57;;;;;;;;;;;;;;;;;;2146882;59;939;-90
2021/08/03 02:50:48;;;;;;;;;;;;;;;;;;2142491;60;1917;-91
2021/08/03 02:53:38;;;;;;;;;;;;;;;;;;2141939;59;848;-90
2021/08/03 02:56:28;;;;;;;;;;;;;;;;;;2141951;67;1700;-88
2021/08/03 02:59:18;;;;;;;;;;;;;;;;;;2146659;59;1046;-89
2021/08/03 03:02:09;;;;;;;;;;;;;;;;;;2144849;67;1378;-88
2021/08/03 03:04:59;;;;;;;;;;;;;;;;;;2145703;59;1255;-88
2021/08/03 03:07:50;;;;;;;;;;;;;;;;;;2149773;59;1367;-89
2021/08/03 03:10:41;;;;;;;;;;;;;;;;;;2147385;67;1912;-88
2021/08/03 03:13:32;;;;;;;;;;;;;;;;;;2144789;59;1189;-89
2021/08/03 03:16:23;;;;;;;;;;;;;;;;;;2147349;67;1364;-88
2021/08/03 03:19:14;;;;;;;;;;;;;;;;;;2141174;67;1540;-89
2021/08/03 03:22:04;;;;;;;;;;;;;;;;;;2145624;67;1089;-91
2021/08/03 03:24:54;;;;;;;;;;;;;;;;;;2144555;59;1276;-90
2021/08/03 03:27:20;;;;;;;;;;;;;;;;;;2146449;59;1272;-89
2021/08/03 03:29:46;;;;;;;;;;;;;;;;;;2142298;67;1927;-91
2021/08/03 03:32:12;;;;;;;;;;;;;;;;;;2145043;67;1368;-90
2021/08/03 03:34:39;;;;;;;;;;;;;;;;;;2145720;67;1273;-89
2021/08/03 03:37:04;;;;;;;;;;;;;;;;;;2145742;59;887;-90
2021/08/03 03:39:30;;;;;;;;;;;;;;;;;;2145809;59;1360;-90
2021/08/03 03:41:56;;;;;;;;;;;;;;;;;;2147157;67;884;-88
2021/08/03 03:44:22;;;;;;;;;;;;;;;;;;2146985;67;1211;-90
2021/08/03 03:47:06;;;;;;;;;;;;;;;;;;2141824;59;1438;-90
2021/08/03 03:49:35;;;;;;;;;;;;;;;;;;2138079;59;1905;-89
2021/08/03 03:52:01;;;;;;;;;;;;;;;;;;2138188;59;1515;-91
2021/08/03 03:54:30;;;;;;;;;;;;;;;;;;2146722;67;1280;-87
2021/08/03 03:56:57;;;;;;;;;;;;;;;;;;2141389;59;983;-87
2021/08/03 03:59:23;;;;;;;;;;;;;;;;;;2147863;59;1091;-89
2021/08/03 04:01:52;;;;;;;;;;;;;;;;;;2144407;59;901;-88
2021/08/03 04:04:19;;;;;;;;;;;;;;;;;;2146864;59;1276;-89
2021/08/03 04:06:45;;;;;;;;;;;;;;;;;;2146709;67;1113;-87
2021/08/03 04:09:16;;;;;;;;;;;;;;;;;;2145034;59;1945;-88
2021/08/03 04:11:45;;;;;;;;;;;;;;;;;;2141703;67;989;-88
2021/08/03 04:14:11;;;;;;;;;;;;;;;;;;2138081;67;1218;-91
2021/08/03 04:16:36;;;;;;;;;;;;;;;;;;2146531;59;1478;-88
2021/08/03 04:19:02;;;;;;;;;;;;;;;;;;2146361;67;1031;-91
2021/08/03 04:21:27;;;;;;;;;;;;;;;;;;2144933;67;998;-89
2021/08/03 04:23:52;;;;;;;;;;;;;;;;;;2145724;67;1071;-89
2021/08/03 04:26:17;;;;;;;;;;;;;;;;;;2146139;67;1280;-89
2021/08/03 04:28:43;;;;;;;;;;;;;;;;;;2148932;59;1244;-86
2021/08/03 04:31:08;;;;;;;;;;;;;;;;;;2145859;67;1967;-90
2021/08/03 04:33:34;;;;;;;;;;;;;;;;;;2142740;67;1371;-87
2021/08/03 04:35:59;;;;;;;;;;;;;;;;;;2142755;67;1376;-88
2021/08/03 04:38:24;;;;;;;;;;;;;;;;;;2146140;59;1087;-87
2021/08/03 04:40:50;;;;;;;;;;;;;;;;;;2145444;59;1233;-88
2021/08/03 04:43:15;;;;;;;;;;;;;;;;;;2145392;59;836;-90
2021/08/03 04:45:40;;;;;;;;;;;;;;;;;;2141443;67;1446;-89
2021/08/03 04:48:05;;;;;;;;;;;;;;;;;;2141413;67;1176;-89
2021/08/03 04:50:31;;;;;;;;;;;;;;;;;;2140985;67;1917;-90
2021/08/03 04:52:56;;;;;;;;;;;;;;;;;;2145160;59;1353;-89
2021/08/03 04:55:22;;;;;;;;;;;;;;;;;;2144675;67;1384;-91
2021/08/03 04:57:47;;;;;;;;;;;;;;;;;;2144954;60;1078;-89
2021/08/03 05:00:13;;;;;;;;;;;;;;;;;;2145188;59;1074;-89
2021/08/03 05:02:39;;;;;;;;;;;;;;;;;;2145076;59;1009;-90
2021/08/03 05:05:05;;;;;;;;;;;;;;;;;;2145450;60;1245;-88
2021/08/03 05:07:31;;;;;;;;;;;;;;;;;;2145316;67;1286;-91
2021/08/03 05:10:03;;;;;;;;;;;;;;;;;;2145365;60;1968;-89
2021/08/03 05:12:29;;;;;;;;;;;;;;;;;;2141672;67;1335;-91
2021/08/03 05:15:00;;;;;;;;;;;;;;;;;;2144285;59;1388;-88
2021/08/03 05:17:29;;;;;;;;;;;;;;;;;;2145420;67;1474;-89
2021/08/03 05:19:54;;;;;;;;;;;;;;;;;;2146674;67;1014;-91
2021/08/03 05:22:19;;;;;;;;;;;;;;;;;;2142157;59;1333;-88
2021/08/03 05:24:45;;;;;;;;;;;;;;;;;;2145451;67;1365;-90
2021/08/03 05:27:10;;;;;;;;;;;;;;;;;;2148848;59;1122;-91
2021/08/03 05:29:35;;;;;;;;;;;;;;;;;;2146757;67;1967;-89
2021/08/03 05:32:00;;;;;;;;;;;;;;;;;;2145224;59;1167;-92
2021/08/03 05:34:25;;;;;;;;;;;;;;;;;;2147280;60;1316;-88
2021/08/03 05:36:51;;;;;;;;;;;;;;;;;;2142547;67;1426;-89
2021/08/03 05:39:16;;;;;;;;;;;;;;;;;;2147974;67;1036;-88
2021/08/03 05:41:41;;;;;;;;;;;;;;;;;;2144221;67;1473;-89
2021/08/03 05:44:06;;;;;;;;;;;;;;;;;;2146326;59;1177;-89
2021/08/03 05:46:33;;;;;;;;;;;;;;;;;;2147417;67;1348;-91
2021/08/03 05:48:58;;;;;;;;;;;;;;;;;;2145470;59;1184;-88
2021/08/03 05:51:23;;;;;;;;;;;;;;;;;;2146358;67;1966;-89
2021/08/03 05:53:48;;;;;;;;;;;;;;;;;;2142616;67;1380;-89
2021/08/03 05:56:14;;;;;;;;;;;;;;;;;;2143593;60;1313;-90
2021/08/03 05:58:39;;;;;;;;;;;;;;;;;;2144929;59;1181;-90
2021/08/03 06:01:04;;;;;;;;;;;;;;;;;;2141954;67;1305;-89
2021/08/03 06:03:29;;;;;;;;;;;;;;;;;;2141009;67;1436;-89
2021/08/03 06:05:55;;;;;;;;;;;;;;;;;;2144652;60;1267;-89
2021/08/03 06:08:23;;;;;;;;;;;;;;;;;;2141191;67;1637;-89
2021/08/03 06:10:50;;;;;;;;;;;;;;;;;;2144436;67;1933;-88
2021/08/03 06:13:16;;;;;;;;;;;;;;;;;;2147596;67;1085;-90
2021/08/03 06:15:42;;;;;;;;;;;;;;;;;;2147975;59;1271;-92
2021/08/03 06:18:12;;;;;;;;;;;;;;;;;;2147153;59;1373;-90
2021/08/03 06:20:38;;;;;;;;;;;;;;;;;;2147984;59;1434;-90
2021/08/03 06:23:03;;;;;;;;;;;;;;;;;;2144241;67;1156;-91
2021/08/03 06:25:29;;;;;;;;;;;;;;;;;;2143963;67;1395;-90
2021/08/03 06:27:54;;;;;;;;;;;;;;;;;;2144014;67;949;-90
2021/08/03 06:30:20;;;;;;;;;;;;;;;;;;2142579;67;1936;-89
2021/08/03 06:32:48;;;;;;;;;;;;;;;;;;2141573;67;1358;-89
2021/08/03 06:35:14;;;;;;;;;;;;;;;;;;2143536;59;1372;-90
2021/08/03 06:37:39;;;;;;;;;;;;;;;;;;2144471;67;1001;-89
2021/08/03 06:40:05;;;;;;;;;;;;;;;;;;2146585;59;1046;-90
2021/08/03 06:42:38;;;;;;;;;;;;;;;;;;2144659;67;1235;-88
2021/08/03 06:45:18;;;;;;;;;;;;;;;;;;2147054;67;1296;-91
2021/08/03 06:47:43;;;;;;;;;;;;;;;;;;2144197;67;1486;-88
2021/08/03 06:50:09;;;;;;;;;;;;;;;;;;2144831;59;1911;-88
2021/08/03 06:52:35;;;;;;;;;;;;;;;;;;2144410;67;1313;-88
2021/08/03 06:55:06;;;;;;;;;;;;;;;;;;2141370;67;1484;-88
2021/08/03 06:57:33;;;;;;;;;;;;;;;;;;2145496;59;1145;-90
2021/08/03 07:00:01;;;;;;;;;;;;;;;;;;2146516;59;1172;-87
2021/08/03 07:02:29;;;;;;;;;;;;;;;;;;2147805;67;1106;-91
2021/08/03 07:05:06;;;;;;;;;;;;;;;;;;2148001;67;1226;-90
2021/08/03 07:07:32;;;;;;;;;;;;;;;;;;2146955;59;1350;-90
2021/08/03 07:10:00;;;;;;;;;;;;;;;;;;2142889;59;1995;-90
2021/08/03 07:12:25;;;;;;;;;;;;;;;;;;2145666;67;1006;-89
2021/08/03 07:14:51;;;;;;;;;;;;;;;;;;2144153;67;1277;-89
2021/08/03 07:17:17;;;;;;;;;;;;;;;;;;2143602;67;1089;-89
2021/08/03 07:19:43;;;;;;;;;;;;;;;;;;2144442;59;1293;-89
2021/08/03 07:22:09;;;;;;;;;;;;;;;;;;2143518;59;1097;-89
2021/08/03 07:24:34;;;;;;;;;;;;;;;;;;2143702;59;1358;-90
2021/08/03 07:27:00;;;;;;;;;;;;;;;;;;2140030;67;1287;-91
2021/08/03 07:29:25;;;;;;;;;;;;;;;;;;2143821;59;1905;-89
2021/08/03 07:31:51;;;;;;;;;;;;;;;;;;2146665;67;1360;-90
2021/08/03 07:34:16;;;;;;;;;;;;;;;;;;2143567;59;1357;-89
2021/08/03 07:36:41;;;;;;;;;;;;;;;;;;2143323;59;1176;-91
2021/08/03 07:39:07;;;;;;;;;;;;;;;;;;2143559;59;1135;-89
2021/08/03 07:41:33;;;;;;;;;;;;;;;;;;2140236;67;1295;-89
2021/08/03 07:43:58;;;;;;;;;;;;;;;;;;2144712;59;1285;-89
2021/08/03 07:46:24;;;;;;;;;;;;;;;;;;2145566;67;1230;-90
2021/08/03 07:48:52;;;;;;;;;;;;;;;;;;2145168;67;1287;-90
2021/08/03 07:51:18;;;;;;;;;;;;;;;;;;2146339;59;1928;-91
2021/08/03 07:53:43;;;;;;;;;;;;;;;;;;2145012;60;1139;-91
2021/08/03 07:56:09;;;;;;;;;;;;;;;;;;2148008;67;1404;-88
2021/08/03 07:58:35;;;;;;;;;;;;;;;;;;2145367;59;1082;-88
2021/08/03 08:01:02;;;;;;;;;;;;;;;;;;2145965;59;1063;-89
2021/08/03 08:03:27;;;;;;;;;;;;;;;;;;2148294;59;1037;-89
2021/08/03 08:05:52;;;;;;;;;;;;;;;;;;2147344;67;1352;-88
2021/08/03 08:08:17;;;;;;;;;;;;;;;;;;2145012;67;936;-87
2021/08/03 08:10:43;;;;;;;;;;;;;;;;;;2141428;67;1918;-87
2021/08/03 08:13:08;;;;;;;;;;;;;;;;;;2141138;59;1187;-87
2021/08/03 08:15:34;;;;;;;;;;;;;;;;;;2145846;59;1778;-87
2021/08/03 08:17:59;;;;;;;;;;;;;;;;;;2144700;59;975;-88
2021/08/03 08:20:24;;;;;;;;;;;;;;;;;;2144594;67;1098;-89
2021/08/03 08:22:50;;;;;;;;;;;;;;;;;;2147378;67;1672;-89
2021/08/03 08:25:15;;;;;;;;;;;;;;;;;;2143165;59;1395;-89
2021/08/03 08:27:41;;;;;;;;;;;;;;;;;;2142536;67;1081;-89
2021/08/03 08:30:07;;;;;;;;;;;;;;;;;;2144055;59;1923;-88
2021/08/03 08:32:32;;;;;;;;;;;;;;;;;;2142984;59;1197;-89
2021/08/03 08:34:58;;;;;;;;;;;;;;;;;;2140822;67;1588;-88
2021/08/03 08:37:23;;;;;;;;;;;;;;;;;;2140048;67;1092;-88
2021/08/03 08:39:48;;;;;;;;;;;;;;;;;;2139027;67;2331;-88
2021/08/03 08:42:17;;;;;;;;;;;;;;;;;;2146081;67;814;-91
2021/08/03 08:44:46;;;;;;;;;;;;;;;;;;2143284;67;1365;-90
2021/08/03 08:47:11;;;;;;;;;;;;;;;;;;2142595;59;1148;-88
2021/08/03 08:49:37;;;;;;;;;;;;;;;;;;2142620;59;1912;-91
2021/08/03 08:52:02;;;;;;;;;;;;;;;;;;2144015;59;1362;-88
2021/08/03 08:54:27;;;;;;;;;;;;;;;;;;2143871;59;1298;-88
2021/08/03 08:56:52;;;;;;;;;;;;;;;;;;2142844;59;1221;-88
2021/08/03 08:59:18;;;;;;;;;;;;;;;;;;2139182;59;1381;-92
2021/08/03 09:01:43;;;;;;;;;;;;;;;;;;2145798;59;940;-88
2021/08/03 09:04:08;;;;;;;;;;;;;;;;;;2143267;67;1031;-90
2021/08/03 09:06:33;;;;;;;;;;;;;;;;;;2146993;59;1347;-88
2021/08/03 09:09:11;;;;;;;;;;;;;;;;;;2145225;67;1058;-88
2021/08/03 09:11:47;;;;;;;;;;;;;;;;;;2143921;67;1912;-90
2021/08/03 09:14:12;;;;;;;;;;;;;;;;;;2143010;59;1332;-89
2021/08/03 09:16:45;;;;;;;;;;;;;;;;;;2143235;67;1170;-88
2021/08/03 09:19:26;;;;;;;;;;;;;;;;;;2143135;59;1063;-89
2021/08/03 09:22:08;;;;;;;;;;;;;;;;;;2140421;60;1253;-88
2021/08/03 09:24:35;;;;;;;;;;;;;;;;;;2143943;59;1337;-88
2021/08/03 09:27:00;;;;;;;;;;;;;;;;;;2139937;59;1441;-87
2021/08/03 09:29:25;;;;;;;;;;;;;;;;;;2144070;59;1901;-88
2021/08/03 09:31:55;;;;;;;;;;;;;;;;;;2143570;67;1146;-89
2021/08/03 09:34:20;;;;;;;;;;;;;;;;;;2139890;59;1507;-90
2021/08/03 09:36:52;;;;;;;;;;;;;;;;;;2140209;67;1048;-89
2021/08/03 09:39:33;;;;;;;;;;;;;;;;;;2143307;59;953;-90
2021/08/03 09:41:59;;;;;;;;;;;;;;;;;;2143899;67;1122;-90
2021/08/03 09:44:24;;;;;;;;;;;;;;;;;;2143512;59;1377;-90
2021/08/03 09:46:56;;;;;;;;;;;;;;;;;;2145066;67;1254;-90
2021/08/03 09:49:32;;;;;;;;;;;;;;;;;;2143342;67;1977;-90
2021/08/03 09:52:06;;;;;;;;;;;;;;;;;;2142353;67;1070;-90
2021/08/03 09:54:32;;;;;;;;;;;;;;;;;;2143223;59;1383;-90
2021/08/03 09:56:57;;;;;;;;;;;;;;;;;;2143178;67;1239;-87
2021/08/03 09:59:31;;;;;;;;;;;;;;;;;;2145191;67;1299;-91
2021/08/03 10:01:57;;;;;;;;;;;;;;;;;;2142183;67;1142;-91
2021/08/03 10:04:22;;;;;;;;;;;;;;;;;;2143528;67;1380;-88
2021/08/03 10:06:48;;;;;;;;;;;;;;;;;;2142737;67;1051;-91
2021/08/03 10:09:13;;;;;;;;;;;;;;;;;;2139076;67;1223;-90
2021/08/03 10:11:39;;;;;;;;;;;;;;;;;;2143035;67;1935;-89
2021/08/03 10:14:05;;;;;;;;;;;;;;;;;;2143171;59;1425;-88
2021/08/03 10:16:30;;;;;;;;;;;;;;;;;;2142852;59;1645;-90
2021/08/03 10:18:57;;;;;;;;;;;;;;;;;;2142916;59;1157;-89
2021/08/03 10:21:22;;;;;;;;;;;;;;;;;;2143447;67;1032;-89
2021/08/03 10:23:48;;;;;;;;;;;;;;;;;;2139321;67;1257;-89
2021/08/03 10:26:14;;;;;;;;;;;;;;;;;;2144240;59;1378;-90
2021/08/03 10:28:39;;;;;;;;;;;;;;;;;;2142339;67;1235;-89
2021/08/03 10:31:04;;;;;;;;;;;;;;;;;;2144419;67;1932;-87
2021/08/03 10:33:40;;;;;;;;;;;;;;;;;;2143359;67;1099;-89
2021/08/03 10:36:05;;;;;;;;;;;;;;;;;;2141674;59;1481;-89
2021/08/03 10:38:32;;;;;;;;;;;;;;;;;;2140776;67;1537;-90
2021/08/03 10:40:57;;;;;;;;;;;;;;;;;;2143190;59;1196;-89
2021/08/03 10:43:23;;;;;;;;;;;;;;;;;;2142104;67;1425;-90
2021/08/03 10:46:09;;;;;;;;;;;;;;;;;;2145285;67;1288;-90
2021/08/03 10:48:37;;;;;;;;;;;;;;;;;;2141204;59;1389;-90
2021/08/03 10:51:18;;;;;;;;;;;;;;;;;;2144335;67;1971;-90
2021/08/03 10:54:02;;;;;;;;;;;;;;;;;;2139242;67;1395;-92
2021/08/03 10:56:28;;;;;;;;;;;;;;;;;;2146530;59;1277;-91
2021/08/03 10:59:12;;;;;;;;;;;;;;;;;;2144404;59;1008;-90
2021/08/03 11:01:44;;;;;;;;;;;;;;;;;;2143837;67;1462;-90
2021/08/03 11:04:09;;;;;;;;;;;;;;;;;;2145163;67;1180;-91
2021/08/03 11:06:35;;;;;;;;;;;;;;;;;;2144738;59;1341;-88
2021/08/03 11:09:00;;;;;;;;;;;;;;;;;;2141466;59;1541;-89
2021/08/03 11:11:28;;;;;;;;;;;;;;;;;;2140197;67;1979;-89
2021/08/03 11:13:58;;;;;;;;;;;;;;;;;;2143714;67;1319;-89
2021/08/03 11:16:23;;;;;;;;;;;;;;;;;;2142916;67;1300;-90
2021/08/03 11:18:53;;;;;;;;;;;;;;;;;;2140532;67;1425;-90
2021/08/03 11:21:19;;;;;;;;;;;;;;;;;;2142200;67;1305;-91
2021/08/03 11:23:59;;;;;;;;;;;;;;;;;;2144518;60;1083;-90
2021/08/03 11:26:26;;;;;;;;;;;;;;;;;;2142466;59;1856;-90
2021/08/03 11:29:14;;;;;;;;;;;;;;;;;;2142037;59;1417;-91
2021/08/03 11:31:42;;;;;;;;;;;;;;;;;;2145657;59;1940;-91
2021/08/03 11:34:08;;;;;;;;;;;;;;;;;;2139286;67;880;-90
2021/08/03 11:36:35;;;;;;;;;;;;;;;;;;2135870;67;1356;-89
2021/08/03 11:39:01;;;;;;;;;;;;;;;;;;2140901;59;1346;-90
2021/08/03 11:41:26;;;;;;;;;;;;;;;;;;2142908;67;997;-89
2021/08/03 11:43:52;;;;;;;;;;;;;;;;;;2145558;67;1036;-90
2021/08/03 11:46:27;;;;;;;;;;;;;;;;;;2142968;67;1447;-89
2021/08/03 11:49:04;;;;;;;;;;;;;;;;;;2144413;59;1053;-90
2021/08/03 11:51:37;;;;;;;;;;;;;;;;;;2141402;67;1936;-89
2021/08/03 11:54:10;;;;;;;;;;;;;;;;;;2140381;59;1636;-89
2021/08/03 11:56:36;;;;;;;;;;;;;;;;;;2140650;67;1122;-89
2021/08/03 11:59:01;;;;;;;;;;;;;;;;;;2139781;59;1775;-90
2021/08/03 12:01:45;;;;;;;;;;;;;;;;;;2144160;67;1252;-88
2021/08/03 12:04:15;;;;;;;;;;;;;;;;;;2142279;67;1301;-89
2021/08/03 12:06:40;;;;;;;;;;;;;;;;;;2143617;67;1094;-88
2021/08/03 12:09:06;;;;;;;;;;;;;;;;;;2143691;59;1094;-90
2021/08/03 12:11:32;;;;;;;;;;;;;;;;;;2146844;67;1992;-89
2021/08/03 12:14:06;;;;;;;;;;;;;;;;;;2143007;67;1441;-89
2021/08/03 12:16:32;;;;;;;;;;;;;;;;;;2140889;59;1390;-89
2021/08/03 12:18:57;;;;;;;;;;;;;;;;;;2140567;59;1274;-89
2021/08/03 12:21:33;;;;;;;;;;;;;;;;;;2144079;67;808;-90
2021/08/03 12:24:08;;;;;;;;;;;;;;;;;;2147508;67;956;-90
2021/08/03 12:26:35;;;;;;;;;;;;;;;;;;2144771;59;1413;-90
2021/08/03 12:29:00;;;;;;;;;;;;;;;;;;2143632;60;1227;-91
2021/08/03 12:31:27;;;;;;;;;;;;;;;;;;2141458;67;1962;-89
2021/08/03 12:33:53;;;;;;;;;;;;;;;;;;2142370;67;1015;-89
2021/08/03 12:36:20;;;;;;;;;;;;;;;;;;2141295;67;1450;-88
2021/08/03 12:39:04;;;;;;;;;;;;;;;;;;2142432;59;1215;-90
2021/08/03 12:41:30;;;;;;;;;;;;;;;;;;2138215;67;1010;-88
2021/08/03 12:43:56;;;;;;;;;;;;;;;;;;2142875;59;1083;-88
2021/08/03 12:46:29;;;;;;;;;;;;;;;;;;2142645;59;1425;-89
2021/08/03 12:48:54;;;;;;;;;;;;;;;;;;2142528;60;1108;-91
2021/08/03 12:51:27;;;;;;;;;;;;;;;;;;2144068;67;1939;-90
2021/08/03 12:53:52;;;;;;;;;;;;;;;;;;2142857;59;982;-88
2021/08/03 12:56:28;;;;;;;;;;;;;;;;;;2140634;59;2656;-89
2021/08/03 12:58:55;;;;;;;;;;;;;;;;;;2142882;67;994;-89
2021/08/03 13:01:22;;;;;;;;;;;;;;;;;;2143166;59;958;-89
2021/08/03 13:03:49;;;;;;;;;;;;;;;;;;2139552;59;1568;-88
2021/08/03 13:06:15;;;;;;;;;;;;;;;;;;2143282;67;1332;-88
2021/08/03 13:08:40;;;;;;;;;;;;;;;;;;2144025;67;1220;-86
2021/08/03 13:11:06;;;;;;;;;;;;;;;;;;2144005;67;1941;-88
2021/08/03 13:13:31;;;;;;;;;;;;;;;;;;2145260;59;1327;-86
2021/08/03 13:15:57;;;;;;;;;;;;;;;;;;2140739;67;1498;-91
2021/08/03 13:18:22;;;;;;;;;;;;;;;;;;2148857;59;1282;-90
2021/08/03 13:20:47;;;;;;;;;;;;;;;;;;2145577;67;998;-87
2021/08/03 13:23:13;;;;;;;;;;;;;;;;;;2137800;67;1801;-88
2021/08/03 13:25:38;;;;;;;;;;;;;;;;;;2142210;59;1304;-88
2021/08/03 13:28:03;;;;;;;;;;;;;;;;;;2143820;59;1012;-88
2021/08/03 13:30:28;;;;;;;;;;;;;;;;;;2142977;59;1935;-88
2021/08/03 13:32:55;;;;;;;;;;;;;;;;;;2142928;67;1354;-88
2021/08/03 13:35:21;;;;;;;;;;;;;;;;;;2143684;67;1343;-88
2021/08/03 13:37:46;;;;;;;;;;;;;;;;;;2143667;67;1135;-89
2021/08/03 13:40:13;;;;;;;;;;;;;;;;;;2146184;67;1164;-88
2021/08/03 13:42:39;;;;;;;;;;;;;;;;;;2143622;67;1192;-87
2021/08/03 13:45:04;;;;;;;;;;;;;;;;;;2145367;67;1288;-89
2021/08/03 13:47:29;;;;;;;;;;;;;;;;;;2145045;59;933;-88
2021/08/03 13:49:55;;;;;;;;;;;;;;;;;;2143971;67;1936;-90
2021/08/03 13:52:20;;;;;;;;;;;;;;;;;;2146925;59;1070;-89
2021/08/03 13:54:45;;;;;;;;;;;;;;;;;;2146472;59;1657;-88
2021/08/03 13:57:11;;;;;;;;;;;;;;;;;;2147344;67;1147;-89
2021/08/03 13:59:36;;;;;;;;;;;;;;;;;;2144027;59;1347;-89
2021/08/03 14:02:03;;;;;;;;;;;;;;;;;;2146569;67;1018;-92
2021/08/03 14:04:30;;;;;;;;;;;;;;;;;;2148768;67;1249;-90
2021/08/03 14:06:56;;;;;;;;;;;;;;;;;;2148056;59;1301;-89
2021/08/03 14:09:21;;;;;;;;;;;;;;;;;;2148301;67;1035;-89
2021/08/03 14:11:47;;;;;;;;;;;;;;;;;;2150163;59;1963;-91
2021/08/03 14:14:12;;;;;;;;;;;;;;;;;;2150427;67;1284;-91
2021/08/03 14:16:38;;;;;;;;;;;;;;;;;;2147436;59;930;-90
2021/08/03 14:19:05;;;;;;;;;;;;;;;;;;2145122;59;1345;-88
2021/08/03 14:21:31;;;;;;;;;;;;;;;;;;2144085;67;1485;-89
2021/08/03 14:23:56;;;;;;;;;;;;;;;;;;2147498;59;1081;-89
2021/08/03 14:26:21;;;;;;;;;;;;;;;;;;2147461;59;1446;-91
2021/08/03 14:28:46;;;;;;;;;;;;;;;;;;2148112;59;1034;-90
2021/08/03 14:31:12;;;;;;;;;;;;;;;;;;2147776;60;1952;-90
2021/08/03 14:33:37;;;;;;;;;;;;;;;;;;2144924;67;1258;-91
2021/08/03 14:36:03;;;;;;;;;;;;;;;;;;2148266;67;1300;-90
2021/08/03 14:38:28;;;;;;;;;;;;;;;;;;2151634;59;847;-91
2021/08/03 14:40:54;;;;;;;;;;;;;;;;;;2151684;67;1143;-91
2021/08/03 14:43:19;;;;;;;;;;;;;;;;;;2144655;59;1373;-88
2021/08/03 14:45:45;;;;;;;;;;;;;;;;;;2148533;67;1281;-89
2021/08/03 14:48:11;;;;;;;;;;;;;;;;;;2144919;67;1279;-91
2021/08/03 14:50:36;;;;;;;;;;;;;;;;;;2147034;59;1897;-89
2021/08/03 14:53:02;;;;;;;;;;;;;;;;;;2147046;67;1432;-90
2021/08/03 14:55:28;;;;;;;;;;;;;;;;;;2147820;59;1542;-90
2021/08/03 14:57:53;;;;;;;;;;;;;;;;;;2148134;59;1010;-90
2021/08/03 15:00:18;;;;;;;;;;;;;;;;;;2149097;59;976;-89
2021/08/03 15:02:44;;;;;;;;;;;;;;;;;;2151611;59;975;-89
2021/08/03 15:05:09;;;;;;;;;;;;;;;;;;2146053;59;1403;-89
2021/08/03 15:07:34;;;;;;;;;;;;;;;;;;2148255;59;1234;-89
2021/08/03 15:10:00;;;;;;;;;;;;;;;;;;2148940;59;1953;-88
2021/08/03 15:12:25;;;;;;;;;;;;;;;;;;2145199;67;1328;-91
2021/08/03 15:14:51;;;;;;;;;;;;;;;;;;2145263;67;1590;-90
2021/08/03 15:17:16;;;;;;;;;;;;;;;;;;2148788;67;893;-90
2021/08/03 15:19:41;;;;;;;;;;;;;;;;;;2145571;67;1361;-90
2021/08/03 15:22:07;;;;;;;;;;;;;;;;;;2146337;60;1079;-89
2021/08/03 15:24:36;;;;;;;;;;;;;;;;;;2152315;59;1342;-89
2021/08/03 15:27:02;;;;;;;;;;;;;;;;;;2145203;67;923;-90
2021/08/03 15:29:27;;;;;;;;;;;;;;;;;;2144964;67;1124;-91
2021/08/03 15:31:54;;;;;;;;;;;;;;;;;;2145401;59;1957;-91
2021/08/03 15:34:19;;;;;;;;;;;;;;;;;;2152053;59;1410;-89
2021/08/03 15:36:45;;;;;;;;;;;;;;;;;;2148756;59;1318;-89
2021/08/03 15:39:10;;;;;;;;;;;;;;;;;;2152223;59;1081;-90
2021/08/03 15:41:35;;;;;;;;;;;;;;;;;;2152870;67;1069;-91
2021/08/03 15:44:00;;;;;;;;;;;;;;;;;;2150823;59;992;-91
2021/08/03 15:46:26;;;;;;;;;;;;;;;;;;2150377;67;1344;-89
2021/08/03 15:48:51;;;;;;;;;;;;;;;;;;2149783;67;1368;-89
2021/08/03 15:51:16;;;;;;;;;;;;;;;;;;2146545;67;1900;-88
2021/08/03 15:53:41;;;;;;;;;;;;;;;;;;2149822;59;829;-90
2021/08/03 15:56:07;;;;;;;;;;;;;;;;;;2149793;59;1323;-89
2021/08/03 15:58:32;;;;;;;;;;;;;;;;;;2150157;59;1258;-88
2021/08/03 16:00:58;;;;;;;;;;;;;;;;;;2146671;67;1139;-90
2021/08/03 16:03:23;;;;;;;;;;;;;;;;;;2150003;59;1009;-91
2021/08/03 16:05:49;;;;;;;;;;;;;;;;;;2149535;67;1261;-91
2021/08/03 16:08:15;;;;;;;;;;;;;;;;;;2149138;59;1140;-91
2021/08/03 16:10:41;;;;;;;;;;;;;;;;;;2149203;59;2009;-90
2021/08/03 16:13:07;;;;;;;;;;;;;;;;;;2149121;67;1011;-89
2021/08/03 16:15:43;;;;;;;;;;;;;;;;;;2150058;67;1253;-90
2021/08/03 16:18:12;;;;;;;;;;;;;;;;;;2150934;67;1397;-92
2021/08/03 16:20:41;;;;;;;;;;;;;;;;;;2153660;67;739;-91
2021/08/03 16:23:09;;;;;;;;;;;;;;;;;;2150301;67;1343;-90
2021/08/03 16:25:35;;;;;;;;;;;;;;;;;;2150336;59;1308;-90
2021/08/03 16:28:01;;;;;;;;;;;;;;;;;;2153454;67;944;-92
2021/08/03 16:30:27;;;;;;;;;;;;;;;;;;2150213;67;1966;-91
2021/08/03 16:32:55;;;;;;;;;;;;;;;;;;2150173;60;1291;-90
2021/08/03 16:35:23;;;;;;;;;;;;;;;;;;2147464;67;1384;-90
2021/08/03 16:37:58;;;;;;;;;;;;;;;;;;2146089;67;1298;-92
2021/08/03 16:40:48;;;;;;;;;;;;;;;;;;2142335;67;1239;-92
2021/08/03 16:43:26;;;;;;;;;;;;;;;;;;2142447;67;1308;-90
2021/08/03 16:48:58;;;;;;;;;;;;;;;;;;2145477;67;1642;-91
2021/08/03 16:51:41;;;;;;;;;;;;;;;;;;2146589;67;1930;-88
2021/08/03 16:56:39;;;;;;;;;;;;;;;;;;2140888;54;2468;-69
2021/08/03 16:59:04;;;;;;;;;;;;;;;;;;2135561;59;3202;-69
2021/08/03 17:01:41;;;;;;;;;;;;;;;;;;2136744;59;2311;-68
2021/08/03 17:04:09;;;;;;;;;;;;;;;;;;2138031;59;2116;-69
2021/08/03 17:06:58;;;;;;;;;;;;;;;;;;2136248;67;1571;-68
2021/08/03 17:09:36;;;;;;;;;;;;;;;;;;2133167;67;2191;-65
2021/08/03 17:12:09;;;;;;;;;;;;;;;;;;2135877;59;1552;-67
2021/08/03 17:14:36;;;;;;;;;;;;;;;;;;2137066;67;1606;-67
2021/08/03 17:17:01;;;;;;;;;;;;;;;;;;2137643;67;1442;-66
2021/08/03 17:19:29;;;;;;;;;;;;;;;;;;2134705;59;2130;-67
2021/08/03 17:21:56;;;;;;;;;;;;;;;;;;2135672;67;1640;-66
2021/08/03 17:24:25;;;;;;;;;;;;;;;;;;2136904;59;1510;-68
2021/08/03 17:26:51;;;;;;;;;;;;;;;;;;2136282;67;1879;-66
2021/08/03 17:29:18;;;;;;;;;;;;;;;;;;2137328;59;2215;-66
2021/08/03 17:31:43;;;;;;;;;;;;;;;;;;2135180;59;1936;-67
2021/08/03 17:34:09;;;;;;;;;;;;;;;;;;2136697;59;2092;-65
2021/08/03 17:36:35;;;;;;;;;;;;;;;;;;2135466;59;1700;-67
2021/08/03 17:39:01;;;;;;;;;;;;;;;;;;2137008;67;1882;-68